Time;durP1;ratioP1;P1;durP2;ratioP2;P2;SDS_P1;SDS_P2;PMS_P1;PMS_P2;Temp;Humidity;BMP_temperature;BMP_pressure;BME280_temperature;BME280_humidity;BME280_pressure;Samples;Min_cycle;Max_cycle;Signal;HPM_P1;HPM_P2
2022/09/13 00:00:58;;;;;;;11.60;7.88;;;;;;;17.45;80.46;100928.22;5068802;28;20036;-59
2022/09/13 00:03:24;;;;;;;12.98;7.57;;;;;;;17.44;80.25;100934.63;5072851;28;20024;-57
2022/09/13 00:05:49;;;;;;;10.65;7.72;;;;;;;17.47;79.96;100936.91;5077278;28;20375;-56
2022/09/13 00:08:16;;;;;;;14.13;7.88;;;;;;;17.47;79.72;100936.91;5071058;28;20029;-58
2022/09/13 00:10:42;;;;;;;12.50;7.90;;;;;;;17.46;80.11;100940.59;5076375;28;20032;-59
2022/09/13 00:13:10;;;;;;;10.32;7.88;;;;;;;17.46;79.65;100940.59;5064462;28;20037;-57
2022/09/13 00:15:40;;;;;;;11.63;7.88;;;;;;;17.43;78.93;100943.69;5083200;28;20038;-57
2022/09/13 00:18:06;;;;;;;10.88;7.93;;;;;;;17.45;78.58;100939.78;5081962;28;20698;-57
2022/09/13 00:20:31;;;;;;;12.35;7.75;;;;;;;17.41;80.28;100940.41;5078787;28;20082;-57
2022/09/13 00:22:56;;;;;;;10.57;7.65;;;;;;;17.39;81.04;100929.03;5081007;28;20398;-57
2022/09/13 00:25:21;;;;;;;12.70;7.88;;;;;;;17.43;80.82;100922.25;5079165;28;20051;-56
2022/09/13 00:27:47;;;;;;;11.73;7.50;;;;;;;17.39;80.82;100921.00;5065019;28;20097;-58
2022/09/13 00:30:12;;;;;;;11.02;7.80;;;;;;;17.41;81.06;100921.63;5078374;28;20506;-59
2022/09/13 00:32:38;;;;;;;13.45;7.90;;;;;;;17.42;81.42;100917.94;5080358;28;20029;-59
2022/09/13 00:35:04;;;;;;;9.27;7.90;;;;;;;17.39;82.01;100929.03;5082728;28;20035;-56
2022/09/13 00:37:32;;;;;;;13.95;7.68;;;;;;;17.34;81.63;100917.09;5072880;28;20119;-57
2022/09/13 00:39:57;;;;;;;12.15;8.00;;;;;;;17.34;81.44;100911.75;5074020;28;20028;-56
2022/09/13 00:42:33;;;;;;;12.85;7.97;;;;;;;17.37;81.90;100915.03;5073106;28;20101;-56
2022/09/13 00:45:05;;;;;;;9.32;7.53;;;;;;;17.31;82.01;100914.81;5077409;28;20051;-58
2022/09/13 00:47:39;;;;;;;10.55;7.53;;;;;;;17.33;81.47;100904.69;5078915;28;20908;-57
2022/09/13 00:50:16;;;;;;;10.02;7.70;;;;;;;17.32;81.11;100904.94;5074524;28;21083;-56
2022/09/13 00:52:46;;;;;;;9.00;7.50;;;;;;;17.34;80.60;100905.53;5069249;28;20115;-57
2022/09/13 00:55:42;;;;;;;10.75;7.43;;;;;;;17.40;80.65;100903.88;5077372;28;20036;-57
2022/09/13 00:58:30;;;;;;;10.52;7.80;;;;;;;17.33;80.03;100893.97;5069088;28;20588;-58
2022/09/13 01:00:58;;;;;;;10.05;7.97;;;;;;;17.31;79.48;100893.38;5076706;28;20055;-57
2022/09/13 01:03:27;;;;;;;11.27;8.15;;;;;;;17.31;79.99;100895.22;5076446;28;20471;-57
2022/09/13 01:06:23;;;;;;;13.15;7.75;;;;;;;17.39;79.66;100891.50;5074228;28;20089;-57
2022/09/13 01:08:52;;;;;;;14.82;8.30;;;;;;;17.31;78.82;100896.06;5072565;28;20048;-56
2022/09/13 01:11:59;;;;;;;11.48;8.00;;;;;;;17.34;78.79;100895.66;5071099;28;20033;-59
2022/09/13 01:14:24;;;;;;;12.88;8.20;;;;;;;17.33;78.33;100893.19;5078240;28;20039;-59
2022/09/13 01:16:51;;;;;;;12.88;8.95;;;;;;;17.28;78.85;100890.28;5078226;28;20390;-57
2022/09/13 01:19:16;;;;;;;12.30;8.30;;;;;;;17.37;77.99;100890.91;5074544;28;20049;-56
2022/09/13 01:22:00;;;;;;;12.50;8.60;;;;;;;17.37;77.90;100890.91;5072061;28;20395;-56
2022/09/13 01:24:41;;;;;;;9.98;8.20;;;;;;;17.37;77.91;100893.59;5080772;28;20123;-58
2022/09/13 01:27:54;;;;;;;14.88;8.57;;;;;;;17.41;78.29;100889.47;5075285;28;20136;-57
2022/09/13 01:30:27;;;;;;;10.07;8.27;;;;;;;17.36;77.85;100891.94;5063174;28;20049;-58
2022/09/13 01:33:28;;;;;;;14.18;8.32;;;;;;;17.39;78.05;100888.84;5079694;28;20047;-56
2022/09/13 01:36:12;;;;;;;10.75;8.35;;;;;;;17.34;78.10;100886.78;5082353;28;20040;-56
2022/09/13 01:39:04;;;;;;;11.63;8.55;;;;;;;17.39;77.88;100887.00;5073929;28;20487;-56
2022/09/13 01:41:48;;;;;;;12.30;8.80;;;;;;;17.38;79.15;100884.50;5073326;28;20035;-57
2022/09/13 01:44:41;;;;;;;10.40;8.25;;;;;;;17.33;79.98;100887.81;5074121;28;20080;-56
2022/09/13 01:47:14;;;;;;;11.95;8.60;;;;;;;17.31;80.16;100879.97;5076266;28;20128;-59
2022/09/13 01:50:10;;;;;;;11.02;8.10;;;;;;;17.35;79.38;100880.38;5076380;28;20063;-56
2022/09/13 01:52:35;;;;;;;13.38;8.77;;;;;;;17.25;80.48;100878.13;5073055;28;20107;-57
2022/09/13 01:55:16;;;;;;;13.10;8.43;;;;;;;17.21;80.66;100871.50;5069041;28;20119;-56
2022/09/13 01:57:46;;;;;;;12.27;8.40;;;;;;;17.20;81.29;100867.19;5076800;28;20878;-58
2022/09/13 02:00:14;;;;;;;11.90;8.40;;;;;;;17.19;82.03;100873.56;5073043;28;20032;-55
2022/09/13 02:03:09;;;;;;;12.23;8.50;;;;;;;17.24;81.45;100876.47;5070303;28;20186;-59
2022/09/13 02:05:48;;;;;;;11.18;8.02;;;;;;;17.20;81.54;100872.53;5070311;28;20058;-56
2022/09/13 02:08:24;;;;;;;11.60;8.13;;;;;;;17.19;81.36;100873.56;5074350;28;20028;-58
2022/09/13 02:10:59;;;;;;;11.80;8.38;;;;;;;17.18;81.54;100874.63;5069426;28;20032;-57
2022/09/13 02:13:28;;;;;;;10.95;8.15;;;;;;;17.20;82.41;100878.75;5071626;28;20028;-57
2022/09/13 02:15:59;;;;;;;13.60;8.23;;;;;;;17.18;82.90;100879.97;5072523;28;20040;-56
2022/09/13 02:18:32;;;;;;;12.65;8.20;;;;;;;17.19;82.63;100870.91;5070739;28;20052;-57
2022/09/13 02:21:03;;;;;;;14.85;8.15;;;;;;;17.17;82.42;100878.31;5075500;28;20035;-56
2022/09/13 02:23:38;;;;;;;9.98;8.00;;;;;;;17.15;81.48;100875.00;5075466;28;20469;-57
2022/09/13 02:26:06;;;;;;;11.55;7.93;;;;;;;17.13;81.12;100877.06;5079984;28;20101;-59
2022/09/13 02:28:37;;;;;;;9.60;7.90;;;;;;;17.19;80.67;100878.94;5080955;28;20028;-57
2022/09/13 02:31:06;;;;;;;12.35;7.80;;;;;;;17.19;81.00;100881.63;5073368;28;21021;-59
2022/09/13 02:33:38;;;;;;;11.27;8.15;;;;;;;17.15;82.37;100880.38;5078928;28;20028;-57
2022/09/13 02:36:12;;;;;;;11.02;7.85;;;;;;;17.19;81.68;100881.63;5073916;28;20115;-58
2022/09/13 02:38:51;;;;;;;10.18;7.75;;;;;;;17.17;81.77;100889.03;5075019;28;20024;-56
2022/09/13 02:41:34;;;;;;;11.35;7.82;;;;;;;17.21;81.74;100890.25;5079814;28;20032;-57
2022/09/13 02:44:22;;;;;;;10.55;8.07;;;;;;;17.22;80.83;100894.59;5073428;28;20054;-56
2022/09/13 02:47:06;;;;;;;12.38;7.93;;;;;;;17.19;81.08;100903.06;5068951;28;20033;-56
2022/09/13 02:49:39;;;;;;;12.45;8.20;;;;;;;17.16;81.05;100898.91;5068266;28;20033;-55
2022/09/13 02:52:26;;;;;;;9.98;7.68;;;;;;;17.17;80.63;100897.88;5073462;28;20032;-58
2022/09/13 02:55:10;;;;;;;11.45;7.57;;;;;;;17.16;81.21;100906.97;5073059;28;20067;-58
2022/09/13 02:57:41;;;;;;;12.18;8.05;;;;;;;17.15;80.57;100901.78;5070590;28;20030;-56
2022/09/13 03:00:08;;;;;;;10.35;7.80;;;;;;;17.14;80.88;100902.84;5072310;28;20757;-57
2022/09/13 03:02:35;;;;;;;11.35;7.85;;;;;;;17.12;80.91;100902.22;5068418;28;20050;-57
2022/09/13 03:05:01;;;;;;;9.93;7.70;;;;;;;17.14;80.58;100906.34;5071593;28;20125;-55
2022/09/13 03:07:27;;;;;;;10.38;7.78;;;;;;;17.13;80.39;100899.34;5072739;28;20837;-55
2022/09/13 03:10:00;;;;;;;11.30;7.80;;;;;;;17.13;80.15;100906.53;5078616;28;20039;-57
2022/09/13 03:12:43;;;;;;;9.95;7.75;;;;;;;17.14;79.77;100900.16;5071873;28;20681;-59
2022/09/13 03:15:14;;;;;;;11.52;7.70;;;;;;;17.12;79.92;100899.53;5068146;28;20048;-56
2022/09/13 03:18:01;;;;;;;11.73;7.50;;;;;;;17.15;80.94;100888.41;5073706;28;20792;-56
2022/09/13 03:20:52;;;;;;;11.85;7.95;;;;;;;17.13;81.60;100893.16;5067213;28;20040;-57
2022/09/13 03:23:42;;;;;;;12.48;7.55;;;;;;;17.15;81.57;100899.97;5064881;28;20119;-56
2022/09/13 03:26:30;;;;;;;12.50;8.05;;;;;;;17.14;82.48;100889.44;5078215;28;20519;-56
2022/09/13 03:29:20;;;;;;;9.55;7.70;;;;;;;17.14;83.16;100884.91;5067307;28;20143;-58
2022/09/13 03:31:54;;;;;;;12.25;8.10;;;;;;;17.07;83.81;100890.25;5072338;28;20039;-58
2022/09/13 03:34:32;;;;;;;11.82;7.72;;;;;;;17.04;83.87;100888.00;5074259;28;20032;-57
2022/09/13 03:37:07;;;;;;;12.75;7.82;;;;;;;17.06;84.34;100882.41;5074602;28;20127;-55
2022/09/13 03:39:46;;;;;;;11.27;7.93;;;;;;;17.01;84.06;100883.00;5074532;28;20521;-56
2022/09/13 03:42:21;;;;;;;11.10;7.65;;;;;;;16.99;84.73;100884.22;5071208;28;20039;-57
2022/09/13 03:44:49;;;;;;;13.15;8.43;;;;;;;16.96;85.39;100881.97;5065378;28;20529;-58
2022/09/13 03:47:16;;;;;;;11.43;8.18;;;;;;;16.94;84.65;100885.66;5067914;28;20032;-56
2022/09/13 03:49:43;;;;;;;11.73;7.80;;;;;;;16.95;84.22;100886.50;5070239;28;20036;-59
2022/09/13 03:52:08;;;;;;;11.18;8.07;;;;;;;16.94;84.12;100879.50;5076454;28;20021;-56
2022/09/13 03:54:36;;;;;;;10.32;7.82;;;;;;;16.96;84.46;100869.38;5071886;28;20097;-59
2022/09/13 03:57:14;;;;;;;11.15;8.00;;;;;;;16.97;84.47;100872.91;5078598;28;20036;-58
2022/09/13 03:59:45;;;;;;;12.57;7.60;;;;;;;16.93;83.75;100872.50;5079102;28;20037;-56
2022/09/13 04:02:10;;;;;;;10.80;7.80;;;;;;;16.86;84.80;100877.81;5072434;28;21036;-57
2022/09/13 04:04:37;;;;;;;10.52;7.43;;;;;;;16.86;85.62;100874.31;5055982;28;20044;-57
2022/09/13 04:07:03;;;;;;;11.77;7.68;;;;;;;16.86;85.94;100882.34;5076741;28;20111;-58
2022/09/13 04:09:29;;;;;;;10.55;7.50;;;;;;;16.87;86.17;100875.97;5076363;28;20036;-57
2022/09/13 04:11:55;;;;;;;10.95;8.10;;;;;;;16.81;85.29;100886.47;5076537;28;20028;-56
2022/09/13 04:14:20;;;;;;;12.05;7.50;;;;;;;16.83;86.09;100893.47;5068299;28;20074;-58
2022/09/13 04:16:45;;;;;;;13.38;8.20;;;;;;;16.76;86.07;100899.63;5073364;28;20150;-57
2022/09/13 04:19:11;;;;;;;11.20;7.72;;;;;;;16.76;86.40;100898.78;5076376;28;20079;-56
2022/09/13 04:21:37;;;;;;;11.95;8.30;;;;;;;16.73;85.90;100905.38;5082993;28;20085;-56
2022/09/13 04:24:02;;;;;;;9.88;8.20;;;;;;;16.68;85.04;100902.50;5075619;28;20509;-55
2022/09/13 04:26:27;;;;;;;13.00;7.75;;;;;;;16.68;85.54;100908.66;5078282;28;20483;-58
2022/09/13 04:28:53;;;;;;;13.38;8.27;;;;;;;16.63;85.83;100904.94;5075099;28;20372;-56
2022/09/13 04:31:18;;;;;;;15.30;8.48;;;;;;;16.62;84.92;100904.09;5068847;28;20047;-56
2022/09/13 04:33:44;;;;;;;12.73;8.15;;;;;;;16.63;84.98;100904.94;5073507;28;20115;-59
2022/09/13 04:36:09;;;;;;;12.95;7.82;;;;;;;16.62;85.17;100916.69;5068284;28;20054;-57
2022/09/13 04:38:36;;;;;;;13.38;8.55;;;;;;;16.64;85.17;100922.66;5075427;28;20376;-57
2022/09/13 04:41:02;;;;;;;12.10;8.30;;;;;;;16.62;84.83;100930.06;5080927;28;20501;-57
2022/09/13 04:43:28;;;;;;;11.32;8.75;;;;;;;16.58;85.45;100928.81;5069148;28;20048;-59
2022/09/13 04:45:53;;;;;;;12.48;7.90;;;;;;;16.57;85.57;100927.16;5072241;28;20410;-57
2022/09/13 04:48:18;;;;;;;12.65;8.77;;;;;;;16.56;85.29;100925.50;5069438;28;20028;-55
2022/09/13 04:50:44;;;;;;;12.38;8.45;;;;;;;16.59;85.93;100919.75;5071987;28;20925;-59
2022/09/13 04:53:10;;;;;;;14.30;9.40;;;;;;;16.55;85.58;100919.31;5069883;28;20090;-56
2022/09/13 04:55:35;;;;;;;16.00;8.40;;;;;;;16.58;85.94;100918.09;5073804;28;20027;-58
2022/09/13 04:58:01;;;;;;;12.60;8.43;;;;;;;16.60;85.99;100926.75;5074072;28;20105;-56
2022/09/13 05:00:27;;;;;;;15.18;9.00;;;;;;;16.53;88.02;100932.09;5072068;28;20032;-55
2022/09/13 05:02:56;;;;;;;14.25;9.18;;;;;;;16.55;87.42;100922.00;5075154;28;20032;-60
2022/09/13 05:05:22;;;;;;;14.85;9.52;;;;;;;16.56;86.79;100920.13;5075833;28;20032;-57
2022/09/13 05:07:51;;;;;;;12.43;9.07;;;;;;;16.56;86.13;100914.78;5072755;28;20047;-57
2022/09/13 05:10:17;;;;;;;15.32;8.98;;;;;;;16.51;87.34;100913.53;5073820;28;20037;-56
2022/09/13 05:12:42;;;;;;;17.02;9.32;;;;;;;16.52;87.14;100919.72;5073765;28;20030;-58
2022/09/13 05:15:08;;;;;;;13.68;9.07;;;;;;;16.54;87.67;100915.00;5075312;28;20478;-57
2022/09/13 05:17:33;;;;;;;17.30;8.95;;;;;;;16.53;87.27;100916.84;5069201;28;20387;-57
2022/09/13 05:19:58;;;;;;;15.57;8.93;;;;;;;16.54;87.42;100917.69;5071156;28;20677;-58
2022/09/13 05:22:24;;;;;;;12.70;9.02;;;;;;;16.58;87.26;100912.75;5067130;28;20033;-58
2022/09/13 05:24:49;;;;;;;13.93;8.90;;;;;;;16.51;87.91;100910.88;5069222;28;20418;-56
2022/09/13 05:27:14;;;;;;;15.77;9.60;;;;;;;16.59;87.64;100914.41;5077409;28;20040;-55
2022/09/13 05:29:40;;;;;;;14.77;9.63;;;;;;;16.59;88.28;100917.06;5072572;28;20111;-57
2022/09/13 05:32:05;;;;;;;14.20;8.85;;;;;;;16.61;87.99;100923.03;5073368;28;20074;-57
2022/09/13 05:34:30;;;;;;;14.65;9.18;;;;;;;16.60;87.82;100922.22;5079206;28;20491;-58
2022/09/13 05:36:55;;;;;;;19.05;10.20;;;;;;;16.56;88.72;100928.16;5073631;28;20036;-57
2022/09/13 05:39:21;;;;;;;15.27;10.27;;;;;;;16.57;88.82;100932.53;5073990;28;20060;-57
2022/09/13 05:41:47;;;;;;;15.15;9.43;;;;;;;16.58;88.53;100931.50;5075056;28;20036;-57
2022/09/13 05:44:12;;;;;;;15.77;10.15;;;;;;;16.58;87.99;100937.66;5040085;28;1078536;-58
2022/09/13 05:46:38;;;;;;;16.35;9.95;;;;;;;16.58;88.56;100939.50;5075311;28;20115;-56
2022/09/13 05:49:03;;;;;;;18.85;10.00;;;;;;;16.57;88.08;100937.88;5065033;28;20560;-59
2022/09/13 05:51:29;;;;;;;15.35;10.30;;;;;;;16.56;87.74;100930.84;5061564;28;20406;-58
2022/09/13 05:53:54;;;;;;;15.93;10.02;;;;;;;16.58;88.02;100934.16;5068175;28;20058;-57
2022/09/13 05:56:22;;;;;;;15.77;10.07;;;;;;;16.57;87.75;100937.88;5076748;28;20020;-57
2022/09/13 05:58:48;;;;;;;17.63;10.30;;;;;;;16.62;88.61;100933.56;5062429;28;20060;-57
2022/09/13 06:01:16;;;;;;;18.92;10.55;;;;;;;16.59;88.43;100935.81;5065250;28;20028;-59
2022/09/13 06:03:41;;;;;;;15.23;10.38;;;;;;;16.59;88.03;100930.47;5069064;28;20043;-56
2022/09/13 06:06:09;;;;;;;17.25;10.57;;;;;;;16.60;88.54;100937.47;5063478;28;20028;-57
2022/09/13 06:08:34;;;;;;;15.73;10.00;;;;;;;16.66;88.41;100928.63;5060790;28;20028;-57
2022/09/13 06:11:05;;;;;;;17.10;10.18;;;;;;;16.63;87.72;100921.00;5065933;28;20028;-58
2022/09/13 06:13:31;;;;;;;14.27;10.15;;;;;;;16.69;88.22;100930.91;5061016;28;20033;-57
2022/09/13 06:15:58;;;;;;;16.67;10.93;;;;;;;16.70;88.93;100935.25;5060579;28;20137;-56
2022/09/13 06:18:24;;;;;;;18.25;11.07;;;;;;;16.69;88.48;100936.28;5063715;28;20052;-55
2022/09/13 06:20:50;;;;;;;16.30;10.48;;;;;;;16.75;88.96;100940.81;5076382;28;20036;-58
2022/09/13 06:23:15;;;;;;;16.73;11.30;;;;;;;16.75;88.74;100934.63;5066257;28;20655;-57
2022/09/13 06:25:41;;;;;;;17.02;11.23;;;;;;;16.80;89.23;100934.88;5060454;28;20028;-58
2022/09/13 06:28:07;;;;;;;14.88;10.73;;;;;;;16.82;89.25;100930.13;5077665;28;20360;-59
2022/09/13 06:30:32;;;;;;;21.80;11.13;;;;;;;16.83;89.14;100925.59;5080435;28;20050;-57
2022/09/13 06:32:58;;;;;;;18.27;10.98;;;;;;;16.85;89.32;100923.53;5068797;28;20078;-58
2022/09/13 06:35:23;;;;;;;18.25;11.25;;;;;;;16.83;89.51;100925.59;5067321;28;20557;-56
2022/09/13 06:37:49;;;;;;;16.98;11.77;;;;;;;16.84;89.40;100932.59;5062750;28;20071;-59
2022/09/13 06:40:15;;;;;;;15.13;11.60;;;;;;;16.83;88.79;100920.25;5061537;28;20423;-56
2022/09/13 06:42:41;;;;;;;17.38;11.30;;;;;;;16.90;89.11;100921.09;5074076;28;20053;-57
2022/09/13 06:45:06;;;;;;;19.08;11.80;;;;;;;16.93;90.07;100921.50;5079138;28;20503;-57
2022/09/13 06:47:32;;;;;;;18.00;12.23;;;;;;;16.98;90.10;100925.44;5060868;28;20059;-55
2022/09/13 06:49:57;;;;;;;17.80;11.98;;;;;;;17.00;89.48;100920.69;5063826;28;20139;-57
2022/09/13 06:52:23;;;;;;;17.23;12.52;;;;;;;17.02;89.71;100922.19;5067769;28;20064;-56
2022/09/13 06:54:49;;;;;;;21.05;12.48;;;;;;;17.03;89.28;100926.50;5071931;28;20028;-57
2022/09/13 06:57:14;;;;;;;17.38;13.10;;;;;;;17.05;88.83;100935.19;5063824;28;20021;-56
2022/09/13 06:59:39;;;;;;;20.35;13.02;;;;;;;17.07;88.65;100930.44;5065302;28;20047;-58
2022/09/13 07:02:05;;;;;;;19.98;14.05;;;;;;;17.08;87.45;100932.09;5061478;28;20522;-58
2022/09/13 07:04:30;;;;;;;19.40;13.63;;;;;;;17.10;86.74;100928.38;5060556;28;20036;-56
2022/09/13 07:06:56;;;;;;;19.17;13.20;;;;;;;17.14;86.99;100930.47;5060457;28;20397;-56
2022/09/13 07:09:22;;;;;;;17.65;12.65;;;;;;;17.16;86.48;100935.59;5060237;28;20039;-56
2022/09/13 07:11:49;;;;;;;20.30;12.30;;;;;;;17.22;86.76;100926.75;5067043;28;20051;-57
2022/09/13 07:14:18;;;;;;;19.02;12.63;;;;;;;17.25;86.88;100918.31;5078265;28;20124;-56
2022/09/13 07:16:45;;;;;;;21.02;13.20;;;;;;;17.36;86.18;100926.78;5075602;28;20476;-58
2022/09/13 07:19:14;;;;;;;20.17;12.52;;;;;;;17.39;86.63;100929.03;5067771;28;20032;-56
2022/09/13 07:21:40;;;;;;;19.33;13.15;;;;;;;17.47;85.88;100926.19;5059681;28;20061;-56
2022/09/13 07:24:05;;;;;;;23.13;13.55;;;;;;;17.51;85.26;100923.91;5064776;28;20056;-56
2022/09/13 07:26:30;;;;;;;18.77;13.48;;;;;;;17.59;86.59;100935.25;5062396;28;20543;-56
2022/09/13 07:28:58;;;;;;;21.25;14.63;;;;;;;17.64;86.50;100936.47;5075637;28;20039;-56
2022/09/13 07:31:30;;;;;;;20.17;14.73;;;;;;;17.69;87.06;100939.38;5060817;28;20036;-58
2022/09/13 07:34:01;;;;;;;22.60;15.40;;;;;;;17.71;86.05;100948.03;5062041;28;20037;-58
2022/09/13 07:36:30;;;;;;;21.77;15.15;;;;;;;17.74;86.34;100939.56;5063508;28;20514;-56
2022/09/13 07:38:56;;;;;;;23.25;15.52;;;;;;;17.83;86.88;100938.34;5062651;28;20039;-57
2022/09/13 07:41:24;;;;;;;22.02;15.00;;;;;;;17.88;86.49;100946.56;5064782;28;20032;-57
2022/09/13 07:43:50;;;;;;;26.33;15.93;;;;;;;17.98;87.39;100946.16;5048019;28;20082;-56
2022/09/13 07:46:18;;;;;;;23.90;16.23;;;;;;;17.98;87.40;100954.22;5067295;28;20028;-57
2022/09/13 07:48:45;;;;;;;24.05;16.83;;;;;;;18.06;86.51;100950.50;5064607;28;20085;-56
2022/09/13 07:51:19;;;;;;;22.23;17.40;;;;;;;18.08;86.33;100951.13;5061711;28;20082;-58
2022/09/13 07:53:46;;;;;;;25.40;17.90;;;;;;;18.12;87.38;100955.03;5066244;28;20029;-57
2022/09/13 07:56:22;;;;;;;21.45;16.98;;;;;;;18.15;86.40;100949.25;5062891;28;20032;-57
2022/09/13 07:58:49;;;;;;;29.98;18.33;;;;;;;18.22;86.37;100949.25;5066778;28;20032;-56
2022/09/13 08:01:18;;;;;;;24.73;18.08;;;;;;;18.26;86.54;100955.03;5060799;28;20387;-56
2022/09/13 08:03:44;;;;;;;24.83;18.23;;;;;;;18.28;85.72;100958.31;5061859;28;20036;-59
2022/09/13 08:06:10;;;;;;;23.40;17.65;;;;;;;18.33;86.41;100961.19;5060545;28;20033;-57
2022/09/13 08:08:36;;;;;;;26.10;19.05;;;;;;;18.40;87.55;100955.78;5064011;28;20024;-57
2022/09/13 08:11:04;;;;;;;24.15;19.13;;;;;;;18.48;87.63;100965.47;5062785;28;20557;-57
2022/09/13 08:13:31;;;;;;;24.45;19.15;;;;;;;18.53;87.06;100963.00;5064591;28;20135;-56
2022/09/13 08:16:00;;;;;;;25.15;21.05;;;;;;;18.60;85.79;100958.41;5067967;28;20975;-56
2022/09/13 08:18:26;;;;;;;23.65;19.70;;;;;;;18.69;87.86;100954.47;5064784;28;20024;-57
2022/09/13 08:20:56;;;;;;;29.23;20.13;;;;;;;18.69;86.43;100965.22;5063151;28;20035;-57
2022/09/13 08:23:21;;;;;;;26.58;20.02;;;;;;;18.78;87.49;100959.59;5065446;28;20039;-57
2022/09/13 08:25:46;;;;;;;28.20;21.77;;;;;;;18.84;85.79;100963.31;5060857;28;20028;-59
2022/09/13 08:28:16;;;;;;;29.63;22.67;;;;;;;18.89;85.55;100969.66;5065127;28;20620;-58
2022/09/13 08:30:42;;;;;;;31.65;23.08;;;;;;;18.92;85.39;100973.78;5063248;28;20032;-59
2022/09/13 08:33:09;;;;;;;29.67;23.05;;;;;;;19.00;85.22;100975.41;5067600;28;20037;-56
2022/09/13 08:35:34;;;;;;;31.58;23.65;;;;;;;19.06;86.30;100977.28;5064241;28;20032;-57
2022/09/13 08:38:00;;;;;;;34.50;24.58;;;;;;;19.11;86.49;100972.06;5067349;28;20039;-58
2022/09/13 08:40:33;;;;;;;29.63;23.58;;;;;;;19.17;85.03;100975.75;5066706;28;20028;-56
2022/09/13 08:43:05;;;;;;;31.05;23.30;;;;;;;19.20;85.84;100981.53;5069850;28;20539;-56
2022/09/13 08:45:31;;;;;;;30.77;24.35;;;;;;;19.32;87.04;100986.22;5068167;28;20036;-56
2022/09/13 08:48:03;;;;;;;30.52;24.10;;;;;;;19.35;86.59;100980.41;5066337;28;20059;-57
2022/09/13 08:50:37;;;;;;;30.30;24.65;;;;;;;19.44;86.15;100978.28;5072258;28;20387;-57
2022/09/13 08:53:08;;;;;;;31.35;24.67;;;;;;;19.54;85.89;100984.00;5068099;28;20046;-57
2022/09/13 08:55:59;;;;;;;30.33;24.42;;;;;;;19.56;84.11;100979.22;5065647;28;20040;-57
2022/09/13 08:58:48;;;;;;;30.30;24.73;;;;;;;19.67;83.42;100975.00;5062875;28;20147;-60
2022/09/13 09:01:43;;;;;;;32.80;25.23;;;;;;;19.73;84.05;100973.28;5066286;28;20075;-57
2022/09/13 09:04:25;;;;;;;31.38;24.58;;;;;;;19.78;83.90;100970.78;5074223;28;20033;-57
2022/09/13 09:07:09;;;;;;;32.85;23.92;;;;;;;19.83;83.84;100972.81;5064677;28;20447;-56
2022/09/13 09:09:41;;;;;;;31.50;24.35;;;;;;;19.87;82.63;100965.94;5072680;28;20480;-57
2022/09/13 09:12:36;;;;;;;31.73;24.35;;;;;;;19.96;83.39;100961.13;5078534;28;20068;-57
2022/09/13 09:15:21;;;;;;;32.08;24.30;;;;;;;19.94;83.19;100953.28;5062396;28;20123;-57
2022/09/13 09:17:55;;;;;;;32.75;25.05;;;;;;;20.06;83.40;100949.84;5061909;28;20040;-57
2022/09/13 09:20:26;;;;;;;28.92;23.08;;;;;;;20.11;83.14;100952.69;5059842;28;20392;-57
2022/09/13 09:22:54;;;;;;;27.85;21.92;;;;;;;20.10;81.06;100951.91;5071723;28;20020;-58
2022/09/13 09:25:22;;;;;;;25.05;20.95;;;;;;;20.06;81.29;100949.84;5063961;28;20037;-57
2022/09/13 09:27:48;;;;;;;27.55;20.90;;;;;;;20.13;81.86;100956.00;5078090;28;20131;-56
2022/09/13 09:30:14;;;;;;;32.25;24.30;;;;;;;20.21;81.27;100962.94;5075509;28;20131;-57
2022/09/13 09:33:01;;;;;;;32.33;24.67;;;;;;;20.23;80.32;100956.31;5064821;28;20040;-58
2022/09/13 09:35:48;;;;;;;29.45;22.17;;;;;;;20.28;80.89;100953.75;5066666;28;20039;-58
2022/09/13 09:38:38;;;;;;;27.75;20.80;;;;;;;20.38;80.56;100955.13;5067251;28;20089;-59
2022/09/13 09:41:12;;;;;;;27.67;21.13;;;;;;;20.48;79.42;100963.47;5069000;28;20036;-59
2022/09/13 09:43:44;;;;;;;24.20;19.63;;;;;;;20.49;78.29;100959.75;5071281;28;20059;-59
2022/09/13 09:46:12;;;;;;;25.05;20.20;;;;;;;20.58;79.02;100954.91;5070866;28;20036;-58
2022/09/13 09:48:44;;;;;;;25.77;19.48;;;;;;;20.58;78.94;100952.19;5061344;28;20043;-59
2022/09/13 09:51:12;;;;;;;;;;;;;;;20.64;80.11;100951.31;5073807;28;20290;-59
2022/09/13 09:53:42;;;;;;;23.38;17.88;;;;;;;20.66;77.44;100940.28;5074814;28;20295;-58
2022/09/13 09:56:18;;;;;;;25.08;18.15;;;;;;;20.75;79.19;100955.09;5080415;28;20763;-59
2022/09/13 09:58:45;;;;;;;23.15;18.55;;;;;;;20.78;77.80;100946.53;5061576;28;20047;-58
2022/09/13 10:01:25;;;;;;;26.50;18.40;;;;;;;20.85;79.86;100951.88;5071190;28;20032;-59
2022/09/13 10:04:02;;;;;;;25.40;17.42;;;;;;;20.82;78.40;100947.75;5066315;28;20449;-59
2022/09/13 10:06:29;;;;;;;23.15;16.25;;;;;;;20.88;78.51;100951.44;5078603;28;20046;-59
2022/09/13 10:09:02;;;;;;;19.42;13.18;;;;;;;20.97;79.09;100949.25;5076511;28;20670;-59
2022/09/13 10:11:47;;;;;;;21.88;14.00;;;;;;;21.06;79.44;100952.41;5073604;28;20072;-59
2022/09/13 10:14:37;;;;;;;26.02;17.83;;;;;;;21.13;78.67;100947.78;5077358;28;20107;-60
2022/09/13 10:17:05;;;;;;;23.02;16.05;;;;;;;21.21;77.88;100938.50;5069472;28;20031;-59
2022/09/13 10:19:31;;;;;;;21.77;16.33;;;;;;;21.37;79.30;100940.56;5072459;28;20220;-59
2022/09/13 10:22:07;;;;;;;22.25;14.25;;;;;;;21.47;78.44;100941.88;5068465;28;20047;-60
2022/09/13 10:24:33;;;;;;;23.23;17.60;;;;;;;21.45;76.84;100943.97;5077823;28;20150;-59
2022/09/13 10:26:58;;;;;;;25.17;17.77;;;;;;;21.49;77.76;100947.84;5073967;28;20042;-59
2022/09/13 10:29:27;;;;;;;25.00;18.20;;;;;;;21.42;75.78;100947.94;5064525;28;20035;-60
2022/09/13 10:31:56;;;;;;;25.20;17.13;;;;;;;21.46;75.62;100948.31;5068352;28;20456;-59
2022/09/13 10:34:35;;;;;;;24.55;17.48;;;;;;;21.53;77.10;100951.72;5063756;28;20086;-58
2022/09/13 10:37:11;;;;;;;24.50;18.35;;;;;;;21.45;76.89;100943.97;5072816;28;20036;-59
2022/09/13 10:39:52;;;;;;;23.33;16.67;;;;;;;21.41;77.10;100940.91;5064318;28;20074;-58
2022/09/13 10:42:25;;;;;;;24.88;17.25;;;;;;;21.39;77.90;100950.28;5077306;28;20504;-59
2022/09/13 10:45:05;;;;;;;;;;;;;;;21.40;78.10;100946.56;5078407;28;20039;-59
2022/09/13 10:47:33;;;;;;;21.90;15.50;;;;;;;21.26;77.94;100952.13;5065520;28;20410;-58
2022/09/13 10:50:12;;;;;;;22.30;14.63;;;;;;;21.22;79.49;100945.56;5074302;28;20119;-58
2022/09/13 10:52:45;;;;;;;22.17;14.77;;;;;;;21.15;79.91;100944.81;5060654;28;20078;-59
2022/09/13 10:55:19;;;;;;;20.48;14.27;;;;;;;21.18;79.77;100941.69;5066651;28;20483;-60
2022/09/13 10:57:50;;;;;;;21.15;14.77;;;;;;;21.19;77.83;100940.63;5065034;28;20400;-60
2022/09/13 11:00:23;;;;;;;22.25;15.05;;;;;;;21.27;79.49;100926.84;5079196;28;20392;-59
2022/09/13 11:02:54;;;;;;;;;;;;;;;21.34;79.05;100927.53;5066534;28;20059;-58
2022/09/13 11:05:23;;;;;;;22.00;15.30;;;;;;;21.33;79.73;100922.38;5060255;28;20353;-59
2022/09/13 11:08:18;;;;;;;21.65;15.48;;;;;;;21.35;79.99;100923.78;5060416;28;20028;-59
2022/09/13 11:10:56;;;;;;;19.65;13.70;;;;;;;21.39;78.37;100923.31;5061094;28;20028;-58
2022/09/13 11:13:34;;;;;;;18.00;12.07;;;;;;;21.51;77.91;100921.44;5070204;28;20032;-59
2022/09/13 11:16:13;;;;;;;19.00;12.10;;;;;;;21.54;77.34;100910.22;5073021;28;20369;-59
2022/09/13 11:18:48;;;;;;;17.60;10.80;;;;;;;21.71;78.58;100909.53;5073908;28;20040;-59
2022/09/13 11:21:28;;;;;;;17.45;10.38;;;;;;;21.87;76.83;100908.00;5071423;28;20043;-59
2022/09/13 11:24:13;;;;;;;14.80;10.32;;;;;;;22.03;76.47;100896.50;5072754;28;20043;-59
2022/09/13 11:26:44;;;;;;;16.90;11.23;;;;;;;22.26;74.65;100897.50;5069047;28;20444;-60
2022/09/13 11:29:36;;;;;;;17.80;11.98;;;;;;;22.38;75.05;100902.88;5063839;28;20032;-61
2022/09/13 11:32:15;;;;;;;17.90;12.20;;;;;;;22.52;73.81;100908.84;5064786;28;20115;-59
2022/09/13 11:35:10;;;;;;;19.17;12.75;;;;;;;22.58;73.25;100907.06;5075084;28;20035;-60